createdAt,value
2019-05-02T00:03:31.039Z,31.53
2019-05-02T00:08:33.172Z,28.83
2019-05-02T00:13:35.670Z,30.17
2019-05-02T00:18:38.887Z,28.23
2019-05-02T00:23:40.304Z,27.77
2019-05-02T00:28:42.915Z,35.30
2019-05-02T00:33:44.849Z,31.50
2019-05-02T00:38:46.318Z,27.70
2019-05-02T00:43:47.690Z,34.63
2019-05-02T00:48:49.307Z,30.67
2019-05-02T00:53:50.596Z,35.33
2019-05-02T00:58:52.188Z,34.27
2019-05-02T01:03:53.816Z,32.87
2019-05-02T01:08:55.661Z,35.00
2019-05-02T01:13:57.743Z,33.73
2019-05-02T01:18:59.116Z,32.60
2019-05-02T01:24:03.076Z,34.10
2019-05-02T01:29:03.654Z,33.33
2019-05-02T01:34:05.058Z,31.33
2019-05-02T01:39:07.620Z,34.47
2019-05-02T01:44:09.579Z,34.40
2019-05-02T01:49:10.816Z,35.40
2019-05-02T01:54:12.376Z,36.73
2019-05-02T01:59:13.623Z,34.23
2019-05-02T02:04:16.152Z,34.43
2019-05-02T02:09:18.051Z,35.97
2019-05-02T02:14:19.638Z,36.67
2019-05-02T02:19:21.035Z,38.83
2019-05-02T02:24:25.254Z,34.27
2019-05-02T02:29:26.137Z,38.43
2019-05-02T02:34:29.920Z,40.00
2019-05-02T02:39:30.915Z,42.47
2019-05-02T02:44:33.582Z,46.47
2019-05-02T02:49:35.574Z,44.80
2019-05-02T02:54:43.086Z,47.10
2019-05-02T02:59:40.162Z,45.03
2019-05-02T03:04:43.925Z,48.53
2019-05-02T03:09:44.556Z,46.03
2019-05-02T03:14:47.272Z,47.40
2019-05-02T03:19:54.209Z,44.03
2019-05-02T03:24:52.062Z,41.20
2019-05-02T03:29:53.272Z,40.77
2019-05-02T03:34:54.732Z,44.33
2019-05-02T03:40:00.188Z,39.47
2019-05-02T03:45:04.398Z,36.00
2019-05-02T03:50:03.358Z,38.77
2019-05-02T03:55:04.592Z,33.87
2019-05-02T04:00:05.853Z,36.77
2019-05-02T04:05:07.181Z,39.27
2019-05-02T04:10:13.348Z,35.03
2019-05-02T04:15:12.719Z,45.80
2019-05-02T04:20:14.103Z,43.90
2019-05-02T04:25:15.507Z,43.83
2019-05-02T04:30:16.756Z,57.75
2019-05-02T04:35:18.360Z,50.13
2019-05-02T04:40:20.029Z,52.37
2019-05-02T04:45:28.738Z,50.97
2019-05-02T04:50:29.265Z,47.40
2019-05-02T04:55:33.265Z,45.50
2019-05-02T05:00:32.939Z,45.53
2019-05-02T05:05:34.586Z,40.67
2019-05-02T05:10:41.450Z,44.43
2019-05-02T05:15:48.369Z,38.80
2019-05-02T05:20:46.051Z,39.80
2019-05-02T05:25:47.907Z,41.00
2019-05-02T05:30:52.235Z,43.17
2019-05-02T05:35:53.427Z,41.40
2019-05-02T05:40:55.216Z,40.20
2019-05-02T05:46:09.071Z,41.60
2019-05-02T05:51:00.022Z,40.27
2019-05-02T05:56:02.597Z,41.63
2019-05-02T06:01:07.035Z,44.47
2019-05-02T06:06:09.748Z,41.97
2019-05-02T06:11:10.510Z,47.03
2019-05-02T06:16:15.041Z,46.50
2019-05-02T06:21:17.079Z,48.93
2019-05-02T06:26:19.404Z,48.30
2019-05-02T06:31:20.699Z,51.67
2019-05-02T06:36:21.986Z,51.50
2019-05-02T06:41:23.604Z,55.43
2019-05-02T06:46:36.443Z,57.10
2019-05-02T06:51:38.000Z,57.43
2019-05-02T06:56:43.048Z,58.77
2019-05-02T07:01:42.682Z,59.10
2019-05-02T07:06:57.669Z,60.23
2019-05-02T07:11:56.915Z,62.47
2019-05-02T07:16:54.634Z,58.50
2019-05-02T07:21:58.424Z,56.47
2019-05-02T07:26:58.156Z,55.57
2019-05-02T07:31:59.475Z,52.77
2019-05-02T07:37:00.976Z,50.90
2019-05-02T07:42:05.809Z,51.40
2019-05-02T07:47:05.689Z,54.90
2019-05-02T07:52:07.029Z,47.87
2019-05-02T07:57:08.399Z,51.60
2019-05-02T08:02:09.794Z,44.67
2019-05-02T08:07:11.286Z,47.10
2019-05-02T08:12:12.526Z,36.63
2019-05-02T08:17:16.976Z,38.17
2019-05-02T08:22:17.404Z,38.10
2019-05-02T08:27:18.647Z,34.45
2019-05-02T08:32:20.190Z,33.38
2019-05-02T08:37:21.444Z,36.30
2019-05-02T08:42:22.794Z,37.48
2019-05-02T08:47:28.516Z,35.90
2019-05-02T08:52:27.306Z,37.75
2019-05-02T08:57:30.084Z,39.53
2019-05-02T09:02:41.086Z,41.98
2019-05-02T09:07:37.095Z,39.98
2019-05-02T09:12:43.650Z,36.75
2019-05-02T09:17:44.624Z,39.90
2019-05-02T09:22:51.387Z,40.88
2019-05-02T09:27:49.997Z,41.83
2019-05-02T09:32:52.179Z,42.45
2019-05-02T09:37:54.121Z,43.65
2019-05-02T09:43:00.006Z,48.83
2019-05-02T09:48:05.160Z,44.77
2019-05-02T09:53:02.122Z,50.67
2019-05-02T09:58:03.467Z,48.83
2019-05-02T10:03:05.243Z,53.25
2019-05-02T10:08:09.110Z,57.40
2019-05-02T10:13:12.067Z,62.35
2019-05-02T10:18:14.593Z,61.08
2019-05-02T10:23:19.482Z,62.43
2019-05-02T10:28:19.976Z,62.77
2019-05-02T10:33:22.532Z,62.60
2019-05-02T10:38:24.215Z,61.30
2019-05-02T10:43:25.460Z,63.37
2019-05-02T10:48:28.624Z,61.80
2019-05-02T10:53:32.137Z,61.93
2019-05-02T10:58:35.723Z,60.30
2019-05-02T11:03:38.120Z,61.17
2019-05-02T11:08:42.242Z,62.83
2019-05-02T11:13:43.263Z,64.03
2019-05-02T11:18:45.315Z,62.55
2019-05-02T11:23:46.666Z,61.25
2019-05-02T11:28:48.222Z,62.70
2019-05-02T11:33:49.909Z,64.53
2019-05-02T11:38:59.556Z,59.93
2019-05-02T11:43:55.841Z,60.50
2019-05-02T11:48:58.667Z,58.83
2019-05-02T11:54:05.179Z,56.40
2019-05-02T11:59:04.475Z,56.77
2019-05-02T12:04:07.576Z,57.00
2019-05-02T12:09:08.902Z,56.93
2019-05-02T12:14:12.224Z,57.20
2019-05-02T12:19:14.935Z,51.87
2019-05-02T12:24:16.475Z,48.40
2019-05-02T12:29:18.065Z,47.20
2019-05-02T12:34:21.594Z,47.43
2019-05-02T12:39:22.916Z,48.93
2019-05-02T12:44:24.501Z,34.60
2019-05-02T12:49:28.014Z,23.03
2019-05-02T12:54:29.444Z,20.40
2019-05-02T12:59:32.194Z,16.67
2019-05-02T13:04:33.689Z,17.63
2019-05-02T13:09:35.031Z,19.23
2019-05-02T13:14:37.581Z,18.03
2019-05-02T13:19:41.369Z,19.50
2019-05-02T13:24:42.379Z,21.00
2019-05-02T13:29:43.761Z,17.30
2019-05-02T13:34:48.703Z,16.93
2019-05-02T13:39:48.429Z,14.37
2019-05-02T13:44:49.678Z,15.30
2019-05-02T13:49:54.869Z,19.57
2019-05-02T13:54:56.790Z,20.37
2019-05-02T13:59:58.054Z,25.20
2019-05-02T14:04:59.424Z,29.33
2019-05-02T14:10:02.472Z,33.42
2019-05-02T14:15:04.208Z,29.50
2019-05-02T14:20:10.753Z,29.10
2019-05-02T14:25:08.766Z,28.30
2019-05-02T14:30:12.003Z,26.82
2019-05-02T14:35:13.612Z,26.12
2019-05-02T14:40:15.514Z,24.82
2019-05-02T14:45:27.235Z,25.33
2019-05-02T14:50:24.299Z,27.25
2019-05-02T14:55:25.615Z,25.43
2019-05-02T15:00:33.388Z,27.52
2019-05-02T15:05:30.376Z,27.58
2019-05-02T15:10:35.047Z,30.37
2019-05-02T15:15:40.714Z,28.23
2019-05-02T15:20:39.472Z,27.87
2019-05-02T15:25:42.368Z,28.17
2019-05-02T15:30:49.188Z,26.65
2019-05-02T15:35:47.381Z,27.05
2019-05-02T15:40:51.467Z,21.90
2019-05-02T15:45:52.730Z,18.60
2019-05-02T15:50:55.350Z,17.92
2019-05-02T15:55:57.588Z,14.33
2019-05-02T16:01:01.715Z,11.22
2019-05-02T16:06:02.322Z,9.63
2019-05-02T16:11:03.637Z,9.58
2019-05-02T16:16:05.576Z,7.75
2019-05-02T16:21:08.001Z,6.97
2019-05-02T16:26:09.418Z,5.87
2019-05-02T16:31:12.574Z,4.60
2019-05-02T16:36:14.095Z,4.37
2019-05-02T16:41:15.343Z,5.22
2019-05-02T16:46:16.714Z,5.65
2019-05-02T16:51:30.305Z,4.60
2019-05-02T16:56:22.276Z,4.50
2019-05-02T17:01:27.517Z,4.60
2019-05-02T17:06:27.207Z,5.50
2019-05-02T17:11:34.122Z,4.50
2019-05-02T17:16:31.890Z,5.70
2019-05-02T17:21:52.343Z,4.97
2019-05-02T17:26:36.749Z,4.70
2019-05-02T17:31:40.295Z,5.10
2019-05-02T17:36:43.021Z,4.73
2019-05-02T17:41:45.760Z,4.80
2019-05-02T17:46:50.811Z,4.97
2019-05-02T17:51:51.882Z,4.70
2019-05-02T17:56:57.628Z,4.30
2019-05-02T18:01:56.753Z,3.00
2019-05-02T18:06:58.373Z,3.60
2019-05-02T18:12:01.509Z,3.60
2019-05-02T18:17:02.987Z,3.60
2019-05-02T18:22:07.158Z,3.37
2019-05-02T18:27:08.079Z,2.90
2019-05-02T18:32:17.454Z,3.13
2019-05-02T18:37:17.869Z,3.97
2019-05-02T18:42:22.115Z,3.70
2019-05-02T18:47:24.801Z,3.33
2019-05-02T18:52:36.414Z,3.33
2019-05-02T18:57:30.391Z,3.43
2019-05-02T19:02:35.415Z,3.60
2019-05-02T19:07:35.916Z,3.70
2019-05-02T19:12:37.321Z,3.53
2019-05-02T19:17:40.519Z,4.13
2019-05-02T19:22:48.802Z,4.62
2019-05-02T19:27:45.922Z,4.00
2019-05-02T19:32:47.723Z,4.23
2019-05-02T19:37:49.335Z,4.53
2019-05-02T19:42:52.695Z,4.00
2019-05-02T19:47:57.695Z,4.40
2019-05-02T19:53:02.063Z,4.57
2019-05-02T19:58:06.266Z,4.43
2019-05-02T20:03:05.608Z,5.00
2019-05-02T20:08:09.695Z,4.70
2019-05-02T20:13:12.017Z,5.00
2019-05-02T20:18:14.918Z,4.20
2019-05-02T20:23:18.768Z,4.40
2019-05-02T20:28:21.312Z,3.37
2019-05-02T20:33:23.212Z,3.93
2019-05-02T20:38:24.917Z,3.13
2019-05-02T20:43:26.724Z,3.20
2019-05-02T20:48:28.676Z,4.40
2019-05-02T20:53:33.378Z,4.30
2019-05-02T20:58:33.272Z,5.27
2019-05-02T21:03:35.012Z,4.93
2019-05-02T21:08:36.443Z,5.40
2019-05-02T21:13:37.715Z,4.87
2019-05-02T21:18:39.023Z,5.27
2019-05-02T21:23:44.773Z,5.27
2019-05-02T21:28:46.103Z,5.37
2019-05-02T21:33:47.080Z,4.77
2019-05-02T21:38:48.791Z,5.30
2019-05-02T21:43:51.895Z,4.90
2019-05-02T21:48:53.783Z,4.90
2019-05-02T21:53:58.144Z,4.83
2019-05-02T21:58:58.266Z,5.40
2019-05-02T22:03:59.673Z,5.33
2019-05-02T22:09:02.903Z,5.13
2019-05-02T22:14:04.646Z,5.00
2019-05-02T22:19:06.185Z,4.60
2019-05-02T22:24:11.499Z,5.03
2019-05-02T22:29:12.341Z,4.40
2019-05-02T22:34:13.983Z,4.33
2019-05-02T22:39:15.620Z,5.47
2019-05-02T22:44:16.902Z,5.10
2019-05-02T22:49:18.289Z,5.17
2019-05-02T22:54:29.966Z,5.53
2019-05-02T22:59:24.031Z,5.03
2019-05-02T23:04:25.734Z,5.17
2019-05-02T23:09:27.128Z,6.23
2019-05-02T23:14:28.664Z,5.20
2019-05-02T23:19:31.698Z,5.77
2019-05-02T23:24:39.069Z,4.77
2019-05-02T23:29:36.453Z,5.40
2019-05-02T23:34:38.016Z,5.67
2019-05-02T23:39:39.273Z,6.33
2019-05-02T23:44:42.553Z,5.80
2019-05-02T23:49:44.086Z,5.70
2019-05-02T23:54:51.774Z,5.90
2019-05-02T23:59:49.169Z,5.07
